createdAt,value
2023-03-03T00:00:46.530Z,41.51
2023-03-03T00:03:22.309Z,41.49
2023-03-03T00:05:53.232Z,41.49
2023-03-03T00:08:24.792Z,41.50
2023-03-03T00:10:54.165Z,41.46
2023-03-03T00:13:26.586Z,41.47
2023-03-03T00:16:14.944Z,41.64
2023-03-03T00:18:48.804Z,41.58
2023-03-03T00:21:31.301Z,41.50
2023-03-03T00:24:23.192Z,41.75
2023-03-03T00:26:56.888Z,41.60
2023-03-03T00:29:38.263Z,41.57
2023-03-03T00:32:25.850Z,41.53
2023-03-03T00:35:00.814Z,41.35
2023-03-03T00:37:36.821Z,41.50
2023-03-03T00:40:25.096Z,41.70
2023-03-03T00:43:01.133Z,41.50
2023-03-03T00:45:40.322Z,41.53
2023-03-03T00:48:30.071Z,42.10
2023-03-03T00:51:02.941Z,41.69
2023-03-03T00:53:34.119Z,41.54
2023-03-03T00:56:02.859Z,41.39
2023-03-03T00:58:34.237Z,41.24
2023-03-03T01:01:07.187Z,41.24
2023-03-03T01:03:46.279Z,41.29
2023-03-03T01:06:17.018Z,41.24
2023-03-03T01:08:46.913Z,41.80
2023-03-03T01:11:26.867Z,41.56
2023-03-03T01:14:00.722Z,41.17
2023-03-03T01:16:32.810Z,41.07
2023-03-03T01:19:02.489Z,40.81
2023-03-03T01:21:33.698Z,40.77
2023-03-03T01:24:04.974Z,40.84
2023-03-03T01:26:34.679Z,40.65
2023-03-03T01:29:05.422Z,40.64
2023-03-03T01:31:34.934Z,40.67
2023-03-03T01:34:08.561Z,40.54
2023-03-03T01:36:38.242Z,40.46
2023-03-03T01:39:08.976Z,40.34
2023-03-03T01:41:38.432Z,40.20
2023-03-03T01:44:07.630Z,40.17
2023-03-03T01:46:53.323Z,40.28
2023-03-03T01:49:34.677Z,41.90
2023-03-03T01:52:25.984Z,40.69
2023-03-03T01:55:04.814Z,40.38
2023-03-03T01:57:38.205Z,40.10
2023-03-03T02:00:10.668Z,40.04
2023-03-03T02:02:43.361Z,39.88
2023-03-03T02:05:15.815Z,39.84
2023-03-03T02:07:48.179Z,39.73
2023-03-03T02:10:21.061Z,39.71
2023-03-03T02:12:59.049Z,39.77
2023-03-03T02:15:33.911Z,39.67
2023-03-03T02:18:16.672Z,40.04
2023-03-03T02:21:04.676Z,40.01
2023-03-03T02:23:34.483Z,39.80
2023-03-03T02:26:15.123Z,39.69
2023-03-03T02:28:45.969Z,40.66
2023-03-03T02:31:18.540Z,40.91
2023-03-03T02:33:50.928Z,40.15
2023-03-03T02:36:25.550Z,39.67
2023-03-03T02:39:14.999Z,39.64
2023-03-03T02:42:19.396Z,39.77
2023-03-03T02:44:52.719Z,39.57
2023-03-03T02:47:22.590Z,39.26
2023-03-03T02:49:56.466Z,39.16
2023-03-03T02:53:06.848Z,39.28
2023-03-03T02:55:36.974Z,38.96
2023-03-03T02:59:00.607Z,39.17
2023-03-03T03:01:38.315Z,39.02
2023-03-03T03:04:17.060Z,38.93
2023-03-03T03:06:50.227Z,38.85
2023-03-03T03:09:23.082Z,38.80
2023-03-03T03:12:01.724Z,38.86
2023-03-03T03:14:34.117Z,38.85
2023-03-03T03:17:02.956Z,38.75
2023-03-03T03:19:32.732Z,38.71
2023-03-03T03:22:05.357Z,38.70
2023-03-03T03:24:36.990Z,38.58
2023-03-03T03:27:10.425Z,38.53
2023-03-03T03:29:39.112Z,38.61
2023-03-03T03:32:10.495Z,38.53
2023-03-03T03:34:39.055Z,38.57
2023-03-03T03:37:10.655Z,38.57
2023-03-03T03:39:40.875Z,38.47
2023-03-03T03:42:12.988Z,38.51
2023-03-03T03:44:42.811Z,38.65
2023-03-03T03:47:12.995Z,38.61
2023-03-03T03:49:42.269Z,38.58
2023-03-03T03:52:11.083Z,38.55
2023-03-03T03:54:40.736Z,38.54
2023-03-03T03:57:10.826Z,39.40
2023-03-03T03:59:40.992Z,38.56
2023-03-03T04:02:10.838Z,38.60
2023-03-03T04:04:40.744Z,38.49
2023-03-03T04:07:11.732Z,38.32
2023-03-03T04:09:41.001Z,38.14
2023-03-03T04:12:11.336Z,38.16
2023-03-03T04:14:42.404Z,37.97
2023-03-03T04:17:21.069Z,38.04
2023-03-03T04:19:54.036Z,37.93
2023-03-03T04:22:25.137Z,37.96
2023-03-03T04:24:54.713Z,38.08
2023-03-03T04:27:31.113Z,37.87
2023-03-03T04:30:02.884Z,37.87
2023-03-03T04:32:34.436Z,37.70
2023-03-03T04:35:08.774Z,37.64
2023-03-03T04:37:41.035Z,37.59
2023-03-03T04:40:12.815Z,37.51
2023-03-03T04:42:45.426Z,37.45
2023-03-03T04:45:16.631Z,37.62
2023-03-03T04:47:47.759Z,37.42
2023-03-03T04:50:19.225Z,37.33
2023-03-03T04:52:51.167Z,38.25
2023-03-03T04:55:22.116Z,38.47
2023-03-03T04:57:50.941Z,37.44
2023-03-03T05:00:23.200Z,37.19
2023-03-03T05:02:54.131Z,37.12
2023-03-03T05:05:23.541Z,37.28
2023-03-03T05:07:52.959Z,37.29
2023-03-03T05:10:23.194Z,37.18
2023-03-03T05:12:53.944Z,37.07
2023-03-03T05:15:25.175Z,36.92
2023-03-03T05:17:58.575Z,36.94
2023-03-03T05:20:29.632Z,36.88
2023-03-03T05:23:02.664Z,37.04
2023-03-03T05:25:32.704Z,36.78
2023-03-03T05:28:02.928Z,36.72
2023-03-03T05:30:32.868Z,36.53
2023-03-03T05:33:02.962Z,36.40
2023-03-03T05:35:34.236Z,36.33
2023-03-03T05:38:05.666Z,36.32
2023-03-03T05:40:36.104Z,36.31
2023-03-03T05:43:07.826Z,36.50
2023-03-03T05:45:38.891Z,36.46
2023-03-03T05:48:10.763Z,36.36
2023-03-03T05:50:41.212Z,36.41
2023-03-03T05:53:10.920Z,36.70
2023-03-03T05:55:41.255Z,36.82
2023-03-03T05:58:10.577Z,37.05
2023-03-03T06:00:40.482Z,36.80
2023-03-03T06:03:12.658Z,36.57
2023-03-03T06:05:43.879Z,36.65
2023-03-03T06:08:14.637Z,36.56
2023-03-03T06:10:47.820Z,36.76
2023-03-03T06:13:19.391Z,36.84
2023-03-03T06:15:50.613Z,36.70
2023-03-03T06:18:19.231Z,36.71
2023-03-03T06:20:54.427Z,36.92
2023-03-03T06:23:23.698Z,37.39
2023-03-03T06:25:54.271Z,36.85
2023-03-03T06:28:26.116Z,36.53
2023-03-03T06:31:03.522Z,36.81
2023-03-03T06:33:34.702Z,36.53
2023-03-03T06:36:05.870Z,36.63
2023-03-03T06:38:34.972Z,36.52
2023-03-03T06:41:09.605Z,36.46
2023-03-03T06:43:39.347Z,36.53
2023-03-03T06:46:10.112Z,36.49
2023-03-03T06:48:39.502Z,36.47
2023-03-03T06:51:27.286Z,36.63
2023-03-03T06:54:03.466Z,36.67
2023-03-03T06:56:37.659Z,37.79
2023-03-03T06:59:21.151Z,37.02
2023-03-03T07:01:51.051Z,37.01
2023-03-03T07:04:21.377Z,37.34
2023-03-03T07:06:50.782Z,36.94
2023-03-03T07:09:31.188Z,37.17
2023-03-03T07:12:11.753Z,36.80
2023-03-03T07:15:10.395Z,36.82
2023-03-03T07:17:51.253Z,36.69
2023-03-03T07:20:31.029Z,36.61
2023-03-03T07:23:03.095Z,36.49
2023-03-03T07:25:38.609Z,36.37
2023-03-03T07:28:34.671Z,37.54
2023-03-03T07:31:36.874Z,36.80
2023-03-03T07:34:39.577Z,36.65
2023-03-03T07:37:23.855Z,36.34
2023-03-03T07:39:54.227Z,36.02
2023-03-03T07:42:41.653Z,36.13
2023-03-03T07:45:32.495Z,36.03
2023-03-03T07:48:25.457Z,36.07
2023-03-03T07:50:54.890Z,35.89
2023-03-03T07:53:31.180Z,35.73
2023-03-03T07:56:00.974Z,35.74
2023-03-03T07:58:42.801Z,35.95
2023-03-03T08:01:31.484Z,35.81
2023-03-03T08:04:02.147Z,35.51
2023-03-03T08:06:54.023Z,35.41
2023-03-03T08:09:53.219Z,35.85
2023-03-03T08:12:37.911Z,35.99
2023-03-03T08:15:23.402Z,35.86
2023-03-03T08:17:58.666Z,35.44
2023-03-03T08:20:49.758Z,35.99
2023-03-03T08:23:21.224Z,36.50
2023-03-03T08:25:53.171Z,36.47
2023-03-03T08:28:23.541Z,36.41
2023-03-03T08:31:05.762Z,35.54
2023-03-03T08:33:47.761Z,35.16
2023-03-03T08:36:19.120Z,34.97
2023-03-03T08:38:49.436Z,34.94
2023-03-03T08:41:19.398Z,35.25
2023-03-03T08:43:49.674Z,35.29
2023-03-03T08:46:19.375Z,35.28
2023-03-03T08:48:49.667Z,35.27
2023-03-03T08:51:19.481Z,35.07
2023-03-03T08:53:49.740Z,34.99
2023-03-03T08:56:19.991Z,35.17
2023-03-03T08:59:01.608Z,35.10
2023-03-03T09:01:34.184Z,34.99
2023-03-03T09:04:03.776Z,35.40
2023-03-03T09:06:35.234Z,35.59
2023-03-03T09:09:06.813Z,34.93
2023-03-03T09:11:39.147Z,35.21
2023-03-03T09:14:14.463Z,35.12
2023-03-03T09:16:52.844Z,34.89
2023-03-03T09:19:37.218Z,35.01
2023-03-03T09:22:37.694Z,35.08
2023-03-03T09:25:22.926Z,35.33
2023-03-03T09:27:55.375Z,34.94
2023-03-03T09:30:30.127Z,34.85
2023-03-03T09:33:01.664Z,34.79
2023-03-03T09:35:41.394Z,34.85
2023-03-03T09:38:30.774Z,35.09
2023-03-03T09:41:11.936Z,35.19
2023-03-03T09:44:13.699Z,35.19
2023-03-03T09:47:02.054Z,35.21
2023-03-03T09:49:35.804Z,35.25
2023-03-03T09:52:15.411Z,35.31
2023-03-03T09:54:55.603Z,35.96
2023-03-03T09:57:41.302Z,35.23
2023-03-03T10:00:22.682Z,35.22
2023-03-03T10:03:17.144Z,35.17
2023-03-03T10:06:42.419Z,35.25
2023-03-03T10:09:37.830Z,35.36
2023-03-03T10:12:26.788Z,36.43
2023-03-03T10:15:05.729Z,35.55
2023-03-03T10:17:53.822Z,35.66
2023-03-03T10:20:55.901Z,35.33
2023-03-03T10:23:47.627Z,35.11
2023-03-03T10:26:44.777Z,35.11
2023-03-03T10:29:25.965Z,35.11
2023-03-03T10:32:07.313Z,35.08
2023-03-03T10:35:06.903Z,35.17
2023-03-03T10:37:59.975Z,35.13
2023-03-03T10:40:58.700Z,35.25
2023-03-03T10:43:41.659Z,35.07
2023-03-03T10:46:50.724Z,35.22
2023-03-03T10:49:45.458Z,35.14
2023-03-03T10:52:34.302Z,35.09
2023-03-03T10:55:31.844Z,35.22
2023-03-03T10:58:26.577Z,35.11
2023-03-03T11:01:29.941Z,35.12
2023-03-03T11:04:18.777Z,34.93
2023-03-03T11:07:11.475Z,35.06
2023-03-03T11:10:06.627Z,35.01
2023-03-03T11:13:17.150Z,35.12
2023-03-03T11:16:00.765Z,34.85
2023-03-03T11:19:00.913Z,34.99
2023-03-03T11:22:10.086Z,34.86
2023-03-03T11:24:54.510Z,34.91
2023-03-03T11:27:40.218Z,34.80
2023-03-03T11:30:13.221Z,34.77
2023-03-03T11:33:22.900Z,34.83
2023-03-03T11:36:13.254Z,35.50
2023-03-03T11:38:51.099Z,35.44
2023-03-03T11:41:38.867Z,34.69
2023-03-03T11:44:46.825Z,34.70
2023-03-03T11:47:49.716Z,34.92
2023-03-03T11:50:51.403Z,35.03
2023-03-03T11:53:30.205Z,34.83
2023-03-03T11:56:13.048Z,34.38
2023-03-03T11:59:39.467Z,34.53
2023-03-03T12:02:39.708Z,34.74
2023-03-03T12:05:34.445Z,34.39
2023-03-03T12:08:24.240Z,34.46
2023-03-03T12:11:09.642Z,34.88
2023-03-03T12:14:19.251Z,34.72
2023-03-03T12:17:09.365Z,35.32
2023-03-03T12:20:06.920Z,34.57
2023-03-03T12:23:06.885Z,35.38
2023-03-03T12:25:43.337Z,34.60
2023-03-03T12:28:29.643Z,34.45
2023-03-03T12:31:11.920Z,35.01
2023-03-03T12:33:55.461Z,34.72
2023-03-03T12:36:48.260Z,34.76
2023-03-03T12:39:35.139Z,34.47
2023-03-03T12:42:20.346Z,34.77
2023-03-03T12:45:21.487Z,34.61
2023-03-03T12:48:15.840Z,34.60
2023-03-03T12:51:07.376Z,34.62
2023-03-03T12:54:09.759Z,34.83
2023-03-03T12:56:47.954Z,34.94
2023-03-03T12:59:21.419Z,34.78
2023-03-03T13:02:29.126Z,34.99
2023-03-03T13:05:39.389Z,35.07
2023-03-03T13:08:19.056Z,34.95
2023-03-03T13:11:02.241Z,34.77
2023-03-03T13:13:38.624Z,34.78
2023-03-03T13:16:17.351Z,34.69
2023-03-03T13:19:01.917Z,34.69
2023-03-03T13:21:53.611Z,34.80
2023-03-03T13:24:35.222Z,34.72
2023-03-03T13:27:19.190Z,34.71
2023-03-03T13:30:18.011Z,34.87
2023-03-03T13:33:05.371Z,34.69
2023-03-03T13:36:01.168Z,34.83
2023-03-03T13:39:00.223Z,35.11
2023-03-03T13:41:43.168Z,34.88
2023-03-03T13:44:26.847Z,34.76
2023-03-03T13:47:14.983Z,34.66
2023-03-03T13:49:47.980Z,34.63
2023-03-03T13:52:35.014Z,35.22
2023-03-03T13:55:15.845Z,34.78
2023-03-03T13:58:04.431Z,34.93
2023-03-03T14:00:54.504Z,35.39
2023-03-03T14:03:47.420Z,35.48
2023-03-03T14:06:22.927Z,35.85
2023-03-03T14:09:10.968Z,35.08
2023-03-03T14:11:50.956Z,34.97
2023-03-03T14:14:49.629Z,35.39
2023-03-03T14:17:54.762Z,35.38
2023-03-03T14:20:32.174Z,34.87
2023-03-03T14:23:22.522Z,35.01
2023-03-03T14:26:01.079Z,34.82
2023-03-03T14:29:05.088Z,34.98
2023-03-03T14:31:45.338Z,34.94
2023-03-03T14:34:41.273Z,35.03
2023-03-03T14:37:24.167Z,35.03
2023-03-03T14:40:23.274Z,35.20
2023-03-03T14:42:54.176Z,35.01
2023-03-03T14:45:34.262Z,35.02
2023-03-03T14:48:32.823Z,35.31
2023-03-03T14:51:25.114Z,35.49
2023-03-03T14:53:59.108Z,35.30
2023-03-03T14:56:40.036Z,35.19
2023-03-03T14:59:21.352Z,35.17
2023-03-03T15:02:38.237Z,35.24
2023-03-03T15:05:23.496Z,35.44
2023-03-03T15:08:09.960Z,35.36
2023-03-03T15:10:50.535Z,36.14
2023-03-03T15:13:36.273Z,35.53
2023-03-03T15:16:23.386Z,36.27
2023-03-03T15:19:34.019Z,35.41
2023-03-03T15:22:34.215Z,35.37
2023-03-03T15:25:44.021Z,35.59
2023-03-03T15:28:37.987Z,35.55
2023-03-03T15:31:15.954Z,35.43
2023-03-03T15:34:16.320Z,35.38
2023-03-03T15:37:23.661Z,35.61
2023-03-03T15:40:01.317Z,35.44
2023-03-03T15:42:45.377Z,35.35
2023-03-03T15:45:46.718Z,36.01
2023-03-03T15:48:41.139Z,36.56
2023-03-03T15:51:30.341Z,36.55
2023-03-03T15:54:26.837Z,36.39
2023-03-03T15:57:14.399Z,35.26
2023-03-03T16:00:12.001Z,35.06
2023-03-03T16:02:53.549Z,34.83
2023-03-03T16:05:39.830Z,34.88
2023-03-03T16:08:43.648Z,34.77
2023-03-03T16:11:17.543Z,34.57
2023-03-03T16:13:52.013Z,34.46
2023-03-03T16:16:54.747Z,34.45
2023-03-03T16:19:49.948Z,34.38
2023-03-03T16:22:32.389Z,34.27
2023-03-03T16:25:12.065Z,34.09
2023-03-03T16:27:53.538Z,34.10
2023-03-03T16:30:29.006Z,34.01
2023-03-03T16:33:19.356Z,34.10
2023-03-03T16:36:05.516Z,34.17
2023-03-03T16:38:45.805Z,35.25
2023-03-03T16:41:54.575Z,34.46
2023-03-03T16:44:41.470Z,34.18
2023-03-03T16:47:33.131Z,35.07
2023-03-03T16:50:26.826Z,34.30
2023-03-03T16:53:25.591Z,35.65
2023-03-03T16:56:08.058Z,34.48
2023-03-03T16:59:35.519Z,34.44
2023-03-03T17:02:45.923Z,34.55
2023-03-03T17:06:07.142Z,34.66
2023-03-03T17:09:03.625Z,34.44
2023-03-03T17:11:47.641Z,34.46
2023-03-03T17:14:43.915Z,34.46
2023-03-03T17:17:39.576Z,34.17
2023-03-03T17:20:38.085Z,34.15
2023-03-03T17:23:23.351Z,34.06
2023-03-03T17:26:03.193Z,34.00
2023-03-03T17:28:53.442Z,33.91
2023-03-03T17:31:25.272Z,33.84
2023-03-03T17:34:05.536Z,33.88
2023-03-03T17:36:53.630Z,33.95
2023-03-03T17:40:01.631Z,33.86
2023-03-03T17:42:49.040Z,33.79
2023-03-03T17:45:21.722Z,33.73
2023-03-03T17:48:19.722Z,33.93
2023-03-03T17:51:12.294Z,34.02
2023-03-03T17:54:20.158Z,34.02
2023-03-03T17:57:23.085Z,34.18
2023-03-03T18:00:15.215Z,34.11
2023-03-03T18:03:06.112Z,33.98
2023-03-03T18:05:47.401Z,34.03
2023-03-03T18:08:29.220Z,34.03
2023-03-03T18:11:15.965Z,33.96
2023-03-03T18:14:10.377Z,33.96
2023-03-03T18:17:12.969Z,34.12
2023-03-03T18:20:01.779Z,34.45
2023-03-03T18:22:51.943Z,34.27
2023-03-03T18:25:32.815Z,34.22
2023-03-03T18:28:46.507Z,35.37
2023-03-03T18:31:35.596Z,34.44
2023-03-03T18:34:38.111Z,34.37
2023-03-03T18:37:41.841Z,34.43
2023-03-03T18:40:38.087Z,34.25
2023-03-03T18:43:46.421Z,34.31
2023-03-03T18:46:26.998Z,34.15
2023-03-03T18:49:09.348Z,34.01
2023-03-03T18:51:41.165Z,34.06
2023-03-03T18:54:23.037Z,34.19
2023-03-03T18:57:06.518Z,34.01
2023-03-03T18:59:55.493Z,34.03
2023-03-03T19:02:44.878Z,33.99
2023-03-03T19:05:17.368Z,34.03
2023-03-03T19:08:31.465Z,34.15
2023-03-03T19:11:05.273Z,34.08
2023-03-03T19:13:35.275Z,33.92
2023-03-03T19:16:37.997Z,33.80
2023-03-03T19:19:15.121Z,33.90
2023-03-03T19:22:11.500Z,33.67
2023-03-03T19:25:03.593Z,33.73
2023-03-03T19:27:47.365Z,33.77
2023-03-03T19:33:43.077Z,33.89
2023-03-03T19:36:19.903Z,33.74
2023-03-03T19:39:19.148Z,33.73
2023-03-03T19:42:29.423Z,33.88
2023-03-03T19:45:33.444Z,33.81
2023-03-03T19:48:16.994Z,33.64
2023-03-03T19:51:06.998Z,33.72
2023-03-03T19:53:49.590Z,34.70
2023-03-03T19:56:31.799Z,34.09
2023-03-03T19:59:15.791Z,33.83
2023-03-03T20:02:23.706Z,33.77
2023-03-03T20:05:07.299Z,33.81
2023-03-03T20:07:58.769Z,34.06
2023-03-03T20:10:43.009Z,34.07
2023-03-03T20:13:18.313Z,34.05
2023-03-03T20:15:59.167Z,33.83
2023-03-03T20:18:37.817Z,34.99
2023-03-03T20:21:44.245Z,34.34
2023-03-03T20:24:52.195Z,34.49
2023-03-03T20:27:35.570Z,34.23
2023-03-03T20:30:47.357Z,34.36
2023-03-03T20:33:19.409Z,34.25
2023-03-03T20:36:25.313Z,34.23
2023-03-03T20:39:18.637Z,34.30
2023-03-03T20:42:25.851Z,35.49
2023-03-03T20:45:15.928Z,35.65
2023-03-03T20:48:23.361Z,35.72
2023-03-03T20:51:15.544Z,35.61
2023-03-03T20:53:51.896Z,35.56
2023-03-03T20:56:44.001Z,35.41
2023-03-03T20:59:40.290Z,35.25
2023-03-03T21:02:35.121Z,35.17
2023-03-03T21:05:33.330Z,35.23
2023-03-03T21:08:08.182Z,34.77
2023-03-03T21:11:06.640Z,33.69
2023-03-03T21:15:26.382Z,33.65
2023-03-03T21:17:41.976Z,33.28
2023-03-03T21:20:35.957Z,33.23
2023-03-03T21:23:34.356Z,33.19
2023-03-03T21:31:47.075Z,33.48
2023-03-03T21:34:27.326Z,33.21
2023-03-03T21:37:00.386Z,33.11
2023-03-03T21:39:39.393Z,33.13
2023-03-03T21:42:13.943Z,33.09
2023-03-03T21:44:45.603Z,33.08
2023-03-03T21:47:18.874Z,32.98
2023-03-03T21:49:50.109Z,32.79
2023-03-03T21:52:21.507Z,32.80
2023-03-03T21:54:53.060Z,32.78
2023-03-03T21:57:22.454Z,33.00
2023-03-03T21:59:51.438Z,32.84
2023-03-03T22:02:24.172Z,32.75
2023-03-03T22:05:03.805Z,32.78
2023-03-03T22:07:33.567Z,32.84
2023-03-03T22:10:02.400Z,32.89
2023-03-03T22:12:31.211Z,32.86
2023-03-03T22:14:59.981Z,32.95
2023-03-03T22:17:31.769Z,32.92
2023-03-03T22:20:01.200Z,32.79
2023-03-03T22:22:34.445Z,32.69
2023-03-03T22:25:04.497Z,32.74
2023-03-03T22:27:35.187Z,32.60
2023-03-03T22:30:15.994Z,32.61
2023-03-03T22:33:29.892Z,32.97
2023-03-03T22:38:59.336Z,33.20
2023-03-03T22:41:29.285Z,33.53
2023-03-03T22:43:58.467Z,33.03
2023-03-03T22:46:27.319Z,32.94
2023-03-03T22:48:56.620Z,32.97
2023-03-03T22:51:26.832Z,32.90
2023-03-03T22:53:56.887Z,32.92
2023-03-03T22:56:26.593Z,33.00
2023-03-03T22:58:55.452Z,33.28
2023-03-03T23:01:24.664Z,33.14
2023-03-03T23:03:53.337Z,33.27
2023-03-03T23:06:22.551Z,33.11
2023-03-03T23:08:51.093Z,32.99
2023-03-03T23:11:19.438Z,32.97
2023-03-03T23:13:48.200Z,33.14
2023-03-03T23:16:20.295Z,33.09
2023-03-03T23:18:49.220Z,33.18
2023-03-03T23:21:18.415Z,33.16
2023-03-03T23:23:47.734Z,33.18
2023-03-03T23:26:17.230Z,33.02
2023-03-03T23:28:45.543Z,32.93
2023-03-03T23:31:14.515Z,32.81
2023-03-03T23:33:47.462Z,32.81
2023-03-03T23:36:17.309Z,32.85
2023-03-03T23:38:46.149Z,32.94
2023-03-03T23:41:14.673Z,33.04
2023-03-03T23:43:43.022Z,33.15
2023-03-03T23:46:11.308Z,33.28
2023-03-03T23:48:41.088Z,33.19
2023-03-03T23:51:10.376Z,33.19
2023-03-03T23:53:39.047Z,33.25
2023-03-03T23:56:09.018Z,33.13
2023-03-03T23:58:38.866Z,33.13
